Strona główna
METAR-TAF:

METAR-TAF

Lotnisko :

Pjongjang, Korea Północna

Port lotniczy Pjongjang-Sunan

Szerokość geograficzna: 39-02N, Długość geograficzna: 125-47E, wysokość: 36 m

METAR: brakujący

czas: 14:18 (05:48 UTC)

Prognoza

Raport powstał 1 godzina i 8 minut temu, godzina 04:40 UTC
Prognoza ważna od 18 godzina 06 UTC do 19 godzina 06 UTC
Wiatr 6 kt od północny zachód
Widzialność: 6000 m
Stopniowe zmiany
od 18 godzina 12 UTC do 18 godzina 14 UTC
Wiatr 4 kt od południowy zachód
Przejściowo
od 18 godzina 18 UTC do 18 godzina 24 UTC
Widzialność: 0500 m
mgła

TAF: ZKPY 180440Z 1806/1906 32003MPS 6000 NSC TX02/1806Z TNM07/1821Z BECMG 1812/1814 23002MPS TEMPO 1818/1824 0500 FG

Obserwacja i prognoza pogody dla ponad 4000 lotnisk (raport METAR i TAF).

Dostępne stacje oznaczono żółtymi i czerwonymi punktami na mapie.

Najedź kursorem aby zobaczyć nazwę stacji.

Kliknij aby zobaczyć obserwacje i prognozy pogody.

Aby zmienić mapę: kliknij na zielony przycisk z czarnym krzyżykiem, aby powiększyć; na zielony przycisk z myślnikiem, aby pomniejszyć; na zielone strzałki, aby przejść do map sąsiednich.


METAR-TAF: